Time;durP1;ratioP1;P1;durP2;ratioP2;P2;SDS_P1;SDS_P2;PMS_P1;PMS_P2;Temp;Humidity;BMP_temperature;BMP_pressure;BME280_temperature;BME280_humidity;BME280_pressure;Samples;Min_cycle;Max_cycle;Signal;HPM_P1;HPM_P2
2023/02/07 00:02:47;;;;;;;10.70;8.27;;;;;;;4.20;52.43;100681.41;7009342;28;20236;-79
2023/02/07 00:06:11;;;;;;;10.47;8.30;;;;;;;4.20;51.86;100696.59;7009358;28;20211;-79
2023/02/07 00:09:36;;;;;;;9.43;7.53;;;;;;;4.79;50.17;100690.88;7010195;28;20227;-79
2023/02/07 00:12:57;;;;;;;11.47;8.67;;;;;;;3.93;51.24;100643.53;7011747;28;20215;-79
2023/02/07 00:16:20;;;;;;;11.67;8.63;;;;;;;4.37;51.87;100696.97;7009813;28;20247;-79
2023/02/07 00:19:41;;;;;;;10.50;8.13;;;;;;;3.84;52.09;100708.25;7010114;28;20265;-79
2023/02/07 00:23:03;;;;;;;10.93;8.67;;;;;;;4.06;52.45;100719.00;7010094;28;20288;-79
2023/02/07 00:26:26;;;;;;;10.90;8.43;;;;;;;4.69;50.24;100676.59;7004721;28;20275;-80
2023/02/07 00:29:48;;;;;;;11.00;7.43;;;;;;;4.86;49.99;100699.28;7004955;28;20577;-79
2023/02/07 00:33:09;;;;;;;9.07;7.77;;;;;;;4.88;50.03;100691.97;7005163;28;20676;-79
2023/02/07 00:36:32;;;;;;;10.33;7.60;;;;;;;3.93;51.34;100666.69;7004653;28;20233;-79
2023/02/07 00:39:54;;;;;;;11.80;8.97;;;;;;;4.28;50.93;100684.34;7004501;28;20293;-79
2023/02/07 00:43:17;;;;;;;12.20;8.70;;;;;;;4.85;49.76;100690.38;7004997;28;20673;-78
2023/02/07 00:46:38;;;;;;;14.40;9.60;;;;;;;4.71;49.42;100681.81;7004296;28;20763;-79
2023/02/07 00:50:00;;;;;;;12.57;9.13;;;;;;;4.82;50.00;100674.63;7004468;28;20706;-80
2023/02/07 00:53:21;;;;;;;11.77;9.30;;;;;;;4.80;49.58;100689.06;7005986;28;20234;-79
2023/02/07 00:56:43;;;;;;;13.97;9.90;;;;;;;4.28;50.46;100700.38;7008337;28;20257;-79
2023/02/07 01:00:09;;;;;;;14.17;10.13;;;;;;;4.39;50.41;100702.19;7008729;28;20260;-79
2023/02/07 01:03:31;;;;;;;12.77;9.47;;;;;;;4.44;50.79;100700.00;7007291;28;20222;-79
2023/02/07 01:06:53;;;;;;;12.93;9.50;;;;;;;4.15;51.25;100688.09;7008233;28;20196;-78
2023/02/07 01:10:14;;;;;;;14.40;9.93;;;;;;;4.21;51.22;100674.25;7009408;28;20299;-79
2023/02/07 01:13:36;;;;;;;12.30;9.40;;;;;;;4.28;50.88;100651.44;7008124;28;20277;-79
2023/02/07 01:16:59;;;;;;;13.80;9.77;;;;;;;4.64;50.04;100664.53;7008676;28;20655;-80
2023/02/07 01:20:21;;;;;;;13.03;9.90;;;;;;;4.34;50.09;100624.25;7008519;28;20319;-79
2023/02/07 01:23:42;;;;;;;13.63;9.60;;;;;;;4.23;50.27;100686.53;7035998;28;20193;-79
2023/02/07 01:27:04;;;;;;;13.70;9.80;;;;;;;3.99;50.85;100640.38;7012919;28;20229;-79
2023/02/07 01:30:25;;;;;;;13.47;10.43;;;;;;;4.41;50.36;100703.78;7007991;28;20696;-79
2023/02/07 01:33:52;;;;;;;13.07;10.13;;;;;;;3.50;53.06;100701.13;7007343;28;20273;-78
2023/02/07 01:37:13;;;;;;;12.53;10.00;;;;;;;3.91;51.61;100719.31;7012615;28;20227;-79
2023/02/07 01:40:36;;;;;;;15.00;10.53;;;;;;;4.23;51.38;100725.69;7034759;28;20202;-79
2023/02/07 01:44:01;;;;;;;17.43;11.13;;;;;;;3.53;51.78;100732.88;7035011;28;20334;-79
2023/02/07 01:47:24;;;;;;;13.87;9.77;;;;;;;3.61;52.00;100733.16;7034768;28;20267;-79
2023/02/07 01:50:48;;;;;;;16.33;10.97;;;;;;;4.08;51.53;100734.91;7034610;28;20227;-79
2023/02/07 01:54:11;;;;;;;15.07;10.03;;;;;;;4.17;50.77;100720.84;7031460;28;20653;-78
2023/02/07 01:57:33;;;;;;;15.63;10.97;;;;;;;3.81;52.01;100718.31;7030169;28;20214;-78
2023/02/07 02:00:55;;;;;;;15.97;10.80;;;;;;;3.45;52.96;100718.41;7030267;28;20216;-79
2023/02/07 02:04:16;;;;;;;13.13;10.27;;;;;;;3.53;51.84;100703.53;7028887;28;20236;-78
2023/02/07 02:07:39;;;;;;;13.70;10.93;;;;;;;3.02;53.12;100704.72;7029904;28;20229;-78
2023/02/07 02:11:19;;;;;;;12.77;10.87;;;;;;;3.02;53.58;100717.19;7029625;28;20307;-79
2023/02/07 02:14:55;;;;;;;15.50;12.30;;;;;;;2.82;53.67;100691.13;7015496;28;20231;-79
2023/02/07 02:18:34;;;;;;;14.60;12.37;;;;;;;2.57;54.08;100709.84;7002175;28;20277;-79
2023/02/07 02:22:27;;;;;;;16.67;11.77;;;;;;;2.63;53.65;100688.97;7001961;28;20286;-78
2023/02/07 02:26:24;;;;;;;16.60;12.13;;;;;;;2.17;55.18;100698.47;6994503;28;20216;-77
2023/02/07 02:30:22;;;;;;;17.83;13.00;;;;;;;2.97;53.04;100698.03;7001867;28;20225;-78
2023/02/07 02:33:49;;;;;;;15.37;12.00;;;;;;;2.53;53.35;100711.00;6984509;28;20213;-78
2023/02/07 02:37:15;;;;;;;17.03;11.90;;;;;;;2.37;54.28;100699.75;7000945;28;20217;-78
2023/02/07 02:40:43;;;;;;;16.77;11.73;;;;;;;2.54;54.15;100678.13;7001835;28;20217;-78
2023/02/07 02:44:08;;;;;;;17.63;13.33;;;;;;;2.16;55.04;100686.13;7001424;28;20243;-78
2023/02/07 02:47:30;;;;;;;14.33;12.13;;;;;;;1.83;55.47;100692.94;7000263;28;20273;-79
2023/02/07 02:50:54;;;;;;;17.37;12.33;;;;;;;2.73;53.65;100700.63;7001457;28;20736;-80
2023/02/07 02:54:28;;;;;;;16.30;11.47;;;;;;;2.47;54.08;100696.31;7001143;28;20293;-78
2023/02/07 02:58:01;;;;;;;18.30;13.53;;;;;;;2.07;54.94;100701.88;7001751;28;20320;-79
2023/02/07 03:01:29;;;;;;;19.83;13.63;;;;;;;2.07;55.05;100702.72;7001718;28;20218;-78
2023/02/07 03:05:07;;;;;;;18.00;13.00;;;;;;;1.61;55.92;100704.13;7000644;28;20196;-78
2023/02/07 03:08:36;;;;;;;15.43;13.50;;;;;;;1.83;55.96;100728.34;7001099;28;20248;-78
2023/02/07 03:12:04;;;;;;;19.00;13.27;;;;;;;2.16;55.85;100718.06;7001180;28;20232;-78
2023/02/07 03:15:33;;;;;;;17.77;13.57;;;;;;;2.12;54.51;100697.94;7000785;28;20745;-78
2023/02/07 03:19:00;;;;;;;20.83;14.27;;;;;;;2.65;53.82;100716.31;7000702;28;20225;-79
2023/02/07 03:22:23;;;;;;;22.37;14.73;;;;;;;2.30;54.64;100717.13;7001476;28;20269;-79
2023/02/07 03:25:47;;;;;;;18.70;14.40;;;;;;;2.40;54.38;100712.81;7001167;28;20629;-79
2023/02/07 03:29:09;;;;;;;20.43;14.23;;;;;;;2.80;53.35;100706.38;7001425;28;20257;-79
2023/02/07 03:32:33;;;;;;;15.57;12.90;;;;;;;2.70;52.77;100718.66;7001583;28;20325;-79
2023/02/07 03:35:57;;;;;;;17.33;13.50;;;;;;;2.76;52.23;100720.88;7001418;28;20293;-79
2023/02/07 03:39:20;;;;;;;16.17;12.60;;;;;;;3.02;52.12;100728.69;7001830;28;20338;-78
2023/02/07 03:42:46;;;;;;;17.73;13.37;;;;;;;3.40;50.91;100726.75;7001683;28;20243;-78
2023/02/07 03:46:09;;;;;;;16.83;12.87;;;;;;;3.50;51.17;100726.94;7003539;28;20283;-78
2023/02/07 03:49:30;;;;;;;15.10;13.17;;;;;;;3.64;49.80;100724.06;7020488;28;20230;-78
2023/02/07 03:52:52;;;;;;;18.40;14.07;;;;;;;3.52;50.13;100708.97;7021005;28;20235;-79
2023/02/07 03:56:13;;;;;;;18.83;13.87;;;;;;;2.71;51.75;100726.53;7020714;28;20215;-78
2023/02/07 03:59:36;;;;;;;15.73;12.90;;;;;;;3.00;51.25;100724.44;7022105;28;20563;-78
2023/02/07 04:02:59;;;;;;;17.70;12.33;;;;;;;3.04;50.67;100708.13;7025680;28;20202;-79
2023/02/07 04:06:21;;;;;;;18.90;11.83;;;;;;;3.31;50.17;100702.59;7026026;28;20209;-78
2023/02/07 04:09:42;;;;;;;19.00;12.27;;;;;;;3.29;49.96;100688.50;7018437;28;20226;-78
2023/02/07 04:13:04;;;;;;;14.67;11.77;;;;;;;3.35;49.51;100694.25;7004785;28;20331;-78
2023/02/07 04:16:27;;;;;;;16.80;12.23;;;;;;;3.41;49.46;100683.13;7004565;28;20297;-78
2023/02/07 04:19:48;;;;;;;18.03;13.17;;;;;;;3.28;49.66;100685.00;7005398;28;20790;-78
2023/02/07 04:23:10;;;;;;;16.70;12.67;;;;;;;3.31;50.14;100705.25;7003062;28;20302;-78
2023/02/07 04:26:31;;;;;;;18.30;13.07;;;;;;;2.85;50.91;100710.44;7004031;28;20257;-78
2023/02/07 04:29:53;;;;;;;13.03;10.80;;;;;;;3.00;49.99;100719.97;7005428;28;20355;-77
2023/02/07 04:33:16;;;;;;;15.67;12.23;;;;;;;3.35;49.55;100712.91;7006025;28;20375;-78
2023/02/07 04:36:37;;;;;;;17.97;13.43;;;;;;;3.51;49.27;100701.97;7000708;28;20292;-77
2023/02/07 04:39:59;;;;;;;17.77;13.37;;;;;;;3.40;48.91;100717.91;7007060;28;20249;-78
2023/02/07 04:43:20;;;;;;;16.20;12.27;;;;;;;3.48;48.74;100719.03;7007678;28;20290;-78
2023/02/07 04:46:42;;;;;;;17.33;12.17;;;;;;;3.36;48.74;100703.13;7022090;28;20201;-78
2023/02/07 04:50:05;;;;;;;16.90;12.93;;;;;;;2.84;49.66;100713.22;7034343;28;20240;-78
2023/02/07 04:53:26;;;;;;;15.10;11.87;;;;;;;2.73;49.30;100710.47;7032160;28;20315;-78
2023/02/07 04:56:48;;;;;;;17.17;12.47;;;;;;;1.53;53.30;100732.19;7031416;28;20296;-78
2023/02/07 05:00:10;;;;;;;16.57;12.47;;;;;;;1.97;51.89;100724.75;7031945;28;20301;-78
2023/02/07 05:03:32;;;;;;;16.80;13.60;;;;;;;1.71;52.54;100723.84;7035936;28;20224;-77
2023/02/07 05:06:55;;;;;;;20.20;13.57;;;;;;;1.50;52.69;100721.78;7049121;28;20205;-78
2023/02/07 05:10:16;;;;;;;16.77;12.57;;;;;;;1.74;52.26;100706.84;7050909;28;20220;-78
2023/02/07 05:13:38;;;;;;;17.90;13.27;;;;;;;1.32;53.48;100721.19;7034137;28;20278;-78
2023/02/07 05:16:59;;;;;;;19.80;13.60;;;;;;;1.55;53.01;100730.28;7032021;28;20282;-80
2023/02/07 05:20:21;;;;;;;13.67;11.80;;;;;;;1.72;53.19;100720.22;7031995;28;20221;-79
2023/02/07 05:23:44;;;;;;;16.00;12.53;;;;;;;2.09;51.92;100714.13;7032065;28;20213;-79
2023/02/07 05:27:05;;;;;;;17.60;12.53;;;;;;;2.42;50.34;100689.63;7031435;28;20208;-79
2023/02/07 05:30:27;;;;;;;15.97;12.43;;;;;;;2.71;50.06;100707.06;7031933;28;20350;-78
2023/02/07 05:33:48;;;;;;;15.03;11.57;;;;;;;2.63;49.60;100723.56;7031384;28;20294;-78
2023/02/07 05:37:10;;;;;;;17.13;12.67;;;;;;;2.69;49.31;100698.31;7031562;28;20694;-79
2023/02/07 05:40:33;;;;;;;15.97;11.83;;;;;;;2.64;49.69;100730.59;7031422;28;20222;-79
2023/02/07 05:43:55;;;;;;;32.00;17.83;;;;;;;2.78;50.30;100718.97;7030599;28;20224;-79
2023/02/07 05:47:16;;;;;;;20.60;13.43;;;;;;;2.83;50.04;100724.81;7030485;28;20267;-79
2023/02/07 05:50:38;;;;;;;16.80;12.73;;;;;;;2.85;50.00;100720.22;7031055;28;20216;-79
2023/02/07 05:53:59;;;;;;;19.17;13.47;;;;;;;2.96;49.53;100729.13;7024266;28;20312;-79
2023/02/07 05:57:22;;;;;;;18.57;13.30;;;;;;;2.95;48.50;100724.78;7028385;28;20236;-79
2023/02/07 06:00:44;;;;;;;14.93;12.23;;;;;;;2.94;48.88;100725.75;7029417;28;20795;-79
2023/02/07 06:04:05;;;;;;;19.63;14.20;;;;;;;2.84;49.27;100730.03;7028129;28;20347;-79
2023/02/07 06:07:27;;;;;;;20.13;14.87;;;;;;;2.61;49.87;100725.47;7028331;28;20347;-79
2023/02/07 06:10:49;;;;;;;20.40;15.80;;;;;;;2.56;50.30;100716.13;7028397;28;20287;-79
2023/02/07 06:14:11;;;;;;;20.67;13.60;;;;;;;2.18;51.09;100700.19;7027512;28;20222;-78
2023/02/07 06:17:33;;;;;;;27.53;14.93;;;;;;;1.87;52.24;100697.06;7027672;28;20307;-78
2023/02/07 06:20:54;;;;;;;19.83;15.50;;;;;;;2.05;52.06;100693.13;7029033;28;20234;-79
2023/02/07 06:24:16;;;;;;;22.80;15.17;;;;;;;1.44;52.94;100674.34;7028236;28;20296;-79
2023/02/07 06:27:39;;;;;;;20.17;15.30;;;;;;;1.18;54.12;100705.28;7028780;28;20278;-79
2023/02/07 06:31:02;;;;;;;25.23;15.53;;;;;;;0.90;55.96;100702.72;7029281;28;20205;-79
2023/02/07 06:34:23;;;;;;;22.13;17.57;;;;;;;1.26;55.62;100716.25;7029544;28;20827;-80
2023/02/07 06:37:45;;;;;;;23.13;16.57;;;;;;;1.45;54.76;100718.56;7029476;28;20690;-80
2023/02/07 06:41:10;;;;;;;23.20;16.53;;;;;;;1.02;54.74;100683.31;7029719;28;20296;-79
2023/02/07 06:44:31;;;;;;;24.30;16.80;;;;;;;1.95;53.01;100742.63;7028881;28;20577;-79
2023/02/07 06:47:54;;;;;;;19.80;13.57;;;;;;;1.58;53.14;100741.56;7029158;28;20359;-79
2023/02/07 06:51:15;;;;;;;18.90;11.37;;;;;;;1.48;52.21;100739.63;7029322;28;20240;-78
2023/02/07 06:54:37;;;;;;;18.20;11.10;;;;;;;1.67;51.20;100740.94;7029711;28;20239;-80
2023/02/07 06:57:59;;;;;;;19.33;11.70;;;;;;;1.68;50.48;100708.13;7029434;28;20257;-79
2023/02/07 07:01:21;;;;;;;17.00;12.17;;;;;;;1.95;49.74;100732.81;7029524;28;20307;-78
2023/02/07 07:04:44;;;;;;;15.73;10.70;;;;;;;2.00;49.71;100752.00;7028125;28;20220;-79
2023/02/07 07:08:05;;;;;;;11.33;9.13;;;;;;;1.90;49.66;100753.56;7029363;28;20236;-80
2023/02/07 07:11:27;;;;;;;10.93;8.87;;;;;;;1.14;50.22;100709.09;7028878;28;20712;-78
2023/02/07 07:14:48;;;;;;;12.87;9.13;;;;;;;1.73;49.98;100747.69;7028529;28;20196;-78
2023/02/07 07:18:10;;;;;;;12.93;9.27;;;;;;;1.62;49.65;100760.84;7028943;28;20306;-78
2023/02/07 07:21:33;;;;;;;11.73;8.30;;;;;;;1.67;49.08;100758.72;7028515;28;20292;-78
2023/02/07 07:24:54;;;;;;;9.53;7.70;;;;;;;1.16;50.87;100762.13;7027855;28;20236;-79
2023/02/07 07:28:16;;;;;;;10.20;8.47;;;;;;;0.73;51.67;100761.31;7028789;28;20288;-78
2023/02/07 07:31:37;;;;;;;9.73;8.67;;;;;;;0.36;51.64;100721.28;7028207;28;20228;-78
2023/02/07 07:34:59;;;;;;;10.63;8.67;;;;;;;0.98;51.00;100744.72;7029790;28;20242;-78
2023/02/07 07:38:21;;;;;;;13.50;8.70;;;;;;;1.40;49.54;100755.22;7033332;28;20275;-78
2023/02/07 07:41:43;;;;;;;9.77;8.67;;;;;;;1.33;49.67;100736.19;7033164;28;20296;-79
2023/02/07 07:45:05;;;;;;;12.77;8.67;;;;;;;1.45;49.87;100724.75;7032014;28;20286;-79
2023/02/07 07:48:28;;;;;;;12.37;8.60;;;;;;;1.61;49.77;100713.94;7031347;28;20316;-78
2023/02/07 07:51:49;;;;;;;10.77;8.87;;;;;;;2.40;47.89;100737.66;7030806;28;20258;-79
2023/02/07 07:55:14;;;;;;;11.97;8.53;;;;;;;2.54;47.57;100734.03;7012969;28;20205;-79
2023/02/07 07:58:35;;;;;;;12.87;9.23;;;;;;;2.40;46.73;100756.28;7003219;28;20239;-79
2023/02/07 08:01:57;;;;;;;9.90;8.23;;;;;;;1.83;48.64;100760.25;7002481;28;20209;-78
2023/02/07 08:05:18;;;;;;;11.37;7.77;;;;;;;1.84;49.16;100769.09;7003439;28;20198;-78
2023/02/07 08:08:40;;;;;;;10.70;7.57;;;;;;;1.82;48.07;100747.03;7003713;28;20317;-79
2023/02/07 08:12:03;;;;;;;10.00;8.40;;;;;;;2.15;47.75;100774.91;7004504;28;20293;-81
2023/02/07 08:15:25;;;;;;;12.53;8.83;;;;;;;2.28;49.01;100764.25;7004356;28;20344;-78
2023/02/07 08:18:47;;;;;;;10.03;8.30;;;;;;;2.43;47.48;100792.50;7005576;28;20314;-79
2023/02/07 08:22:08;;;;;;;13.40;8.33;;;;;;;2.20;48.50;100801.19;7005606;28;20565;-79
2023/02/07 08:25:30;;;;;;;15.73;8.70;;;;;;;2.22;47.32;100808.13;7004372;28;20300;-79
2023/02/07 08:28:53;;;;;;;13.47;9.50;;;;;;;2.36;47.94;100796.53;7005209;28;20223;-79
2023/02/07 08:32:14;;;;;;;11.60;8.80;;;;;;;2.65;46.76;100793.53;7004828;28;20226;-79
2023/02/07 08:35:36;;;;;;;13.77;10.30;;;;;;;3.13;45.90;100807.88;7004669;28;20868;-79
2023/02/07 08:38:58;;;;;;;12.63;9.03;;;;;;;3.53;44.93;100820.88;7005091;28;20222;-78
2023/02/07 08:42:20;;;;;;;11.30;8.10;;;;;;;5.31;42.22;100827.44;7004824;28;20205;-79
2023/02/07 08:45:47;;;;;;;15.00;8.17;;;;;;;7.61;36.46;100810.22;7003158;28;20316;-79
2023/02/07 08:49:08;;;;;;;11.10;7.97;;;;;;;9.01;33.96;100796.03;7004684;28;20233;-78
2023/02/07 08:52:30;;;;;;;10.30;8.07;;;;;;;9.80;31.92;100808.84;7003906;28;20223;-78
2023/02/07 08:55:51;;;;;;;11.27;8.53;;;;;;;10.73;31.00;100794.72;7003758;28;20815;-79
2023/02/07 08:59:13;;;;;;;10.73;7.93;;;;;;;11.19;29.34;100785.38;7003919;28;20214;-78
2023/02/07 09:02:36;;;;;;;10.50;8.40;;;;;;;10.49;31.60;100774.81;7002015;28;20669;-77
2023/02/07 09:05:58;;;;;;;8.80;7.90;;;;;;;12.16;29.78;100766.63;7003463;28;20196;-79
2023/02/07 09:09:20;;;;;;;10.23;7.67;;;;;;;12.48;28.76;100749.56;7004242;28;20221;-77
2023/02/07 09:12:41;;;;;;;10.67;8.00;;;;;;;12.21;28.53;100761.56;7003661;28;20281;-77
2023/02/07 09:16:03;;;;;;;10.73;8.83;;;;;;;11.19;29.05;100770.03;7003277;28;20667;-78
2023/02/07 09:19:26;;;;;;;10.87;9.20;;;;;;;8.99;32.18;100768.44;7003909;28;20274;-78
2023/02/07 09:26:26;;;;;;;11.40;8.77;;;;;;;6.18;39.71;100784.53;7002988;28;20192;-79
2023/02/07 09:29:48;;;;;;;12.00;9.17;;;;;;;6.35;39.00;100787.47;7003668;28;20221;-78
2023/02/07 09:33:09;;;;;;;12.00;9.40;;;;;;;5.89;40.14;100778.09;7003067;28;20266;-79
2023/02/07 09:36:32;;;;;;;11.40;8.93;;;;;;;6.24;38.98;100784.84;7002735;28;20273;-78
2023/02/07 09:39:54;;;;;;;12.27;9.43;;;;;;;5.00;40.78;100790.75;7002480;28;20371;-78
2023/02/07 09:43:26;;;;;;;12.40;8.73;;;;;;;4.47;43.02;100801.25;7002766;28;20212;-79
2023/02/07 09:46:51;;;;;;;12.20;9.07;;;;;;;4.63;42.31;100797.28;7002480;28;20288;-78
2023/02/07 09:50:15;;;;;;;13.63;9.73;;;;;;;4.88;42.74;100737.41;7003286;28;20603;-78
2023/02/07 09:53:42;;;;;;;13.27;9.17;;;;;;;5.61;41.03;100800.88;7002573;28;20265;-79
2023/02/07 09:57:08;;;;;;;10.63;9.23;;;;;;;6.09;39.90;100746.00;7002237;28;20289;-79
2023/02/07 10:00:31;;;;;;;12.47;9.27;;;;;;;6.11;40.97;100789.53;7002847;28;20255;-80
2023/02/07 10:04:05;;;;;;;11.93;9.17;;;;;;;7.47;39.26;100778.38;7001779;28;20219;-78
2023/02/07 10:07:26;;;;;;;12.73;9.47;;;;;;;7.42;38.88;100786.03;7001813;28;20231;-78
2023/02/07 10:10:55;;;;;;;15.20;8.93;;;;;;;7.01;38.32;100788.84;7002522;28;20215;-80
2023/02/07 10:14:27;;;;;;;11.53;10.33;;;;;;;6.49;40.61;100791.66;7002255;28;20234;-78
2023/02/07 10:18:00;;;;;;;12.37;9.53;;;;;;;5.64;40.50;100800.63;7002640;28;20279;-79
2023/02/07 10:21:29;;;;;;;11.67;9.97;;;;;;;6.02;41.51;100803.69;7002217;28;20235;-78
2023/02/07 10:25:16;;;;;;;11.27;9.53;;;;;;;6.40;39.35;100798.66;7002131;28;20246;-80
2023/02/07 10:28:50;;;;;;;13.07;9.90;;;;;;;5.66;41.39;100801.34;7021207;28;20307;-80
2023/02/07 10:32:15;;;;;;;13.83;9.57;;;;;;;5.74;41.11;100806.06;7044941;28;20183;-79
2023/02/07 10:35:38;;;;;;;11.77;9.63;;;;;;;5.15;42.78;100796.69;7042929;28;20212;-79
2023/02/07 10:39:04;;;;;;;12.27;9.70;;;;;;;4.85;43.85;100805.31;7030447;28;20583;-78
2023/02/07 10:42:27;;;;;;;11.97;9.53;;;;;;;5.54;42.39;100785.47;7030467;28;20756;-79
2023/02/07 10:45:50;;;;;;;12.03;10.40;;;;;;;5.58;42.57;100793.09;7023864;28;20290;-79
2023/02/07 10:49:18;;;;;;;12.40;9.57;;;;;;;5.37;42.60;100805.53;7030466;28;20225;-81
2023/02/07 10:52:43;;;;;;;10.93;9.43;;;;;;;5.01;43.52;100788.94;7028352;28;20681;-80
2023/02/07 10:56:05;;;;;;;10.10;8.90;;;;;;;5.08;43.62;100788.31;7002356;28;20242;-78
2023/02/07 10:59:39;;;;;;;11.93;10.10;;;;;;;5.65;41.82;100794.28;7002417;28;20592;-78
2023/02/07 11:03:07;;;;;;;10.53;8.93;;;;;;;5.87;41.67;100794.28;7001948;28;20243;-79
2023/02/07 11:06:30;;;;;;;11.00;9.40;;;;;;;6.54;40.02;100757.28;7001848;28;20273;-78
2023/02/07 11:09:54;;;;;;;8.80;7.90;;;;;;;7.10;36.92;100786.19;7004328;28;20227;-80
2023/02/07 11:13:18;;;;;;;12.53;8.87;;;;;;;7.82;36.45;100793.03;7008005;28;20221;-80
2023/02/07 11:16:43;;;;;;;12.00;8.67;;;;;;;7.53;35.71;100804.69;7011865;28;20216;-80
2023/02/07 11:20:08;;;;;;;9.27;8.13;;;;;;;8.15;35.54;100803.38;7011947;28;20232;-79
2023/02/07 11:23:29;;;;;;;9.47;8.37;;;;;;;6.40;38.15;100797.78;7012530;28;20202;-79
2023/02/07 11:26:57;;;;;;;9.13;7.93;;;;;;;7.78;35.69;100786.22;7011249;28;20262;-80
2023/02/07 11:30:21;;;;;;;9.33;7.43;;;;;;;8.46;35.46;100791.50;7012927;28;20270;-79
2023/02/07 11:33:43;;;;;;;8.57;7.67;;;;;;;9.18;33.85;100781.81;7012337;28;20241;-79
2023/02/07 11:37:26;;;;;;;11.70;8.43;;;;;;;9.69;33.88;100782.09;7011078;28;20214;-83
2023/02/07 11:40:49;;;;;;;12.13;7.97;;;;;;;9.24;33.49;100784.78;7008695;28;20273;-80
2023/02/07 11:44:16;;;;;;;9.70;8.43;;;;;;;9.50;33.55;100772.28;7005843;28;20206;-80
2023/02/07 11:47:41;;;;;;;9.77;8.10;;;;;;;9.28;33.58;100783.44;7006566;28;20259;-78
2023/02/07 11:51:05;;;;;;;8.90;8.00;;;;;;;10.30;32.21;100759.66;7007077;28;20201;-78
2023/02/07 11:54:28;;;;;;;9.43;8.53;;;;;;;8.71;34.11;100741.66;7005898;28;20302;-78
2023/02/07 11:57:49;;;;;;;9.60;7.70;;;;;;;9.69;32.64;100774.03;7005715;28;20218;-76
2023/02/07 12:01:15;;;;;;;8.93;8.03;;;;;;;9.70;32.33;100765.78;7005395;28;20296;-78
2023/02/07 12:04:38;;;;;;;10.73;8.27;;;;;;;9.94;32.86;100770.56;7002710;28;20261;-78
2023/02/07 12:08:03;;;;;;;9.37;7.93;;;;;;;7.86;36.20;100766.75;7004943;28;20305;-78
2023/02/07 12:11:28;;;;;;;11.17;8.43;;;;;;;8.39;35.13;100766.19;7004271;28;20300;-78
2023/02/07 12:14:53;;;;;;;11.10;8.00;;;;;;;9.27;34.30;100760.22;7004208;28;20237;-77
2023/02/07 12:18:19;;;;;;;11.17;8.10;;;;;;;8.79;34.86;100764.09;7004647;28;20356;-80
2023/02/07 12:21:44;;;;;;;9.37;8.27;;;;;;;8.56;35.12;100757.41;7004703;28;20243;-78
2023/02/07 12:25:14;;;;;;;9.17;7.47;;;;;;;8.74;34.61;100744.91;7005255;28;20678;-78
2023/02/07 12:28:43;;;;;;;8.57;7.37;;;;;;;9.70;32.91;100735.31;7005990;28;20373;-78
2023/02/07 12:32:08;;;;;;;7.43;6.63;;;;;;;10.26;31.17;100752.03;7005610;28;20272;-78
2023/02/07 12:35:34;;;;;;;10.40;7.93;;;;;;;8.45;33.42;100721.75;7005125;28;20363;-80
2023/02/07 12:39:00;;;;;;;9.90;7.33;;;;;;;7.87;33.88;100734.38;7008942;28;20232;-78
2023/02/07 12:42:29;;;;;;;10.00;6.87;;;;;;;7.47;34.75;100735.44;7005764;28;20248;-77
2023/02/07 12:46:02;;;;;;;6.90;6.20;;;;;;;7.63;34.44;100736.63;7004977;28;20257;-78
2023/02/07 12:49:54;;;;;;;9.00;7.20;;;;;;;7.68;35.06;100737.06;7005477;28;20809;-77
2023/02/07 12:53:25;;;;;;;8.80;6.97;;;;;;;8.53;33.60;100736.16;6992062;28;20264;-77
2023/02/07 12:56:53;;;;;;;11.37;7.13;;;;;;;8.69;33.06;100720.28;7004646;28;20330;-78
2023/02/07 13:00:21;;;;;;;8.20;7.00;;;;;;;7.77;34.63;100727.31;7005394;28;20705;-79
2023/02/07 13:04:17;;;;;;;8.97;6.90;;;;;;;7.94;35.12;100729.28;7003447;28;20327;-77
2023/02/07 13:07:47;;;;;;;7.30;6.33;;;;;;;8.10;34.08;100722.34;7003980;28;20362;-78
2023/02/07 13:11:20;;;;;;;9.77;7.20;;;;;;;8.17;34.80;100739.59;7006870;28;20300;-78
2023/02/07 13:14:55;;;;;;;7.40;6.50;;;;;;;8.27;34.50;100727.03;7004513;28;20306;-78
2023/02/07 13:18:21;;;;;;;10.03;6.83;;;;;;;8.18;33.83;100740.41;7006677;28;20239;-78
2023/02/07 13:21:48;;;;;;;8.67;6.43;;;;;;;7.75;33.64;100678.25;7005208;28;20289;-79
2023/02/07 13:25:16;;;;;;;7.60;6.30;;;;;;;8.08;33.95;100732.38;7006724;28;20273;-78
2023/02/07 13:28:42;;;;;;;7.67;6.80;;;;;;;7.66;34.87;100735.50;7012866;28;20322;-79
2023/02/07 13:32:11;;;;;;;8.97;7.17;;;;;;;8.04;34.98;100730.13;7008930;28;20282;-78
2023/02/07 13:35:34;;;;;;;7.33;6.33;;;;;;;7.91;34.36;100710.78;7004045;28;20213;-77
2023/02/07 13:39:04;;;;;;;7.73;6.87;;;;;;;7.98;34.07;100718.13;7004497;28;20712;-77
2023/02/07 13:42:35;;;;;;;10.30;6.23;;;;;;;8.08;33.90;100716.25;7004200;28;20226;-78
2023/02/07 13:46:03;;;;;;;7.13;6.43;;;;;;;8.03;33.59;100715.88;7006748;28;20215;-78
2023/02/07 13:49:37;;;;;;;8.13;6.50;;;;;;;8.22;33.17;100701.56;7003727;28;20319;-79
2023/02/07 13:53:03;;;;;;;8.37;6.50;;;;;;;8.35;33.91;100705.66;7004095;28;20217;-78
2023/02/07 14:00:20;;;;;;;6.97;6.27;;;;;;;8.57;32.41;100710.69;7013905;28;20225;-78
2023/02/07 14:03:42;;;;;;;7.67;6.30;;;;;;;8.46;34.30;100705.50;7030673;28;20231;-78
2023/02/07 14:07:10;;;;;;;9.27;6.27;;;;;;;8.87;32.16;100677.31;7031920;28;20275;-78
2023/02/07 14:10:39;;;;;;;7.43;6.40;;;;;;;9.20;31.04;100697.22;7032258;28;20231;-78
2023/02/07 14:14:15;;;;;;;8.70;6.43;;;;;;;8.60;32.67;100699.63;7031380;28;20310;-78
2023/02/07 14:17:57;;;;;;;8.40;6.10;;;;;;;8.91;32.05;100660.69;7030979;28;20323;-79
2023/02/07 14:21:39;;;;;;;6.23;5.33;;;;;;;10.01;29.31;100699.75;7032079;28;20274;-78
2023/02/07 14:25:20;;;;;;;6.20;5.47;;;;;;;9.32;30.56;100705.94;7031273;28;20204;-78
2023/02/07 14:28:45;;;;;;;8.47;6.10;;;;;;;8.55;32.16;100701.06;7031531;28;20711;-78
2023/02/07 14:32:41;;;;;;;6.67;5.90;;;;;;;9.20;31.18;100712.53;7031346;28;20568;-78
2023/02/07 14:36:20;;;;;;;6.23;5.33;;;;;;;8.79;31.45;100717.56;7023474;28;20784;-78
2023/02/07 14:39:41;;;;;;;6.13;5.50;;;;;;;9.36;30.56;100715.41;7032865;28;20346;-78
2023/02/07 14:43:04;;;;;;;6.37;5.20;;;;;;;9.02;31.36;100719.69;7031775;28;20676;-78
2023/02/07 14:46:27;;;;;;;6.63;5.43;;;;;;;8.85;31.03;100693.56;7030792;28;20200;-79
2023/02/07 14:49:50;;;;;;;6.23;5.63;;;;;;;8.96;31.24;100681.81;7031730;28;20271;-78
2023/02/07 14:53:14;;;;;;;6.43;5.20;;;;;;;9.31;30.72;100707.78;7030789;28;20208;-78
2023/02/07 14:56:46;;;;;;;6.07;5.47;;;;;;;8.82;31.08;100709.16;7030909;28;20288;-78
2023/02/07 15:00:26;;;;;;;7.17;5.23;;;;;;;9.10;31.32;100707.19;7030814;28;20244;-78
2023/02/07 15:04:00;;;;;;;6.93;5.33;;;;;;;9.73;30.82;100702.66;7029556;28;20639;-78
2023/02/07 15:07:21;;;;;;;5.87;5.23;;;;;;;9.81;29.96;100716.22;7030796;28;20244;-78
2023/02/07 15:10:51;;;;;;;5.97;5.20;;;;;;;9.69;30.25;100728.25;7031409;28;20429;-79
2023/02/07 15:14:22;;;;;;;6.13;5.33;;;;;;;9.28;31.68;100729.63;7030611;28;20370;-78
2023/02/07 15:17:44;;;;;;;5.63;4.97;;;;;;;9.02;31.42;100730.47;7030373;28;20618;-78
2023/02/07 15:21:06;;;;;;;7.10;5.33;;;;;;;8.36;31.19;100696.59;7031011;28;20576;-77
2023/02/07 15:24:30;;;;;;;5.57;5.07;;;;;;;8.39;31.77;100733.94;7030614;28;20707;-78
2023/02/07 15:28:01;;;;;;;7.10;5.33;;;;;;;8.36;31.91;100739.59;7031318;28;20233;-78
2023/02/07 15:31:22;;;;;;;5.87;5.03;;;;;;;8.36;31.50;100731.53;7046840;28;20234;-79
2023/02/07 15:34:44;;;;;;;6.17;5.00;;;;;;;7.89;32.57;100742.31;7053234;28;20231;-78
2023/02/07 15:38:17;;;;;;;6.20;5.60;;;;;;;7.79;32.77;100744.13;7042632;28;20381;-78
2023/02/07 15:41:39;;;;;;;6.60;5.47;;;;;;;7.41;33.48;100746.75;7030521;28;20217;-78
2023/02/07 15:45:02;;;;;;;7.57;5.67;;;;;;;6.99;34.97;100746.06;7030294;28;20201;-78
2023/02/07 15:48:23;;;;;;;6.67;5.60;;;;;;;7.49;34.73;100749.59;7030089;28;20226;-78
2023/02/07 15:51:45;;;;;;;6.67;5.80;;;;;;;6.98;35.48;100747.06;7024825;28;20346;-78
2023/02/07 15:55:16;;;;;;;6.70;5.47;;;;;;;6.92;35.02;100760.13;7002541;28;20255;-78
2023/02/07 15:58:38;;;;;;;10.40;5.93;;;;;;;6.63;35.74;100743.06;7007595;28;20223;-78
2023/02/07 16:02:01;;;;;;;6.43;5.53;;;;;;;6.36;36.16;100740.94;7005873;28;20230;-78